Time;durP1;ratioP1;P1;durP2;ratioP2;P2;SDS_P1;SDS_P2;PMS_P1;PMS_P2;Temp;Humidity;BMP_temperature;BMP_pressure;BME280_temperature;BME280_humidity;BME280_pressure;Samples;Min_cycle;Max_cycle;Signal;HPM_P1;HPM_P2
2022/10/22 00:01:39;;;;;;;14.40;9.98;;;;;;;4.30;65.62;101225.57;1774578;78;21085;-74
2022/10/22 00:04:05;;;;;;;15.03;11.20;;;;;;;4.31;65.72;101229.86;1792592;80;21013;-74
2022/10/22 00:06:32;;;;;;;13.90;10.78;;;;;;;4.34;65.73;101234.73;1806590;79;21030;-74
2022/10/22 00:08:59;;;;;;;15.30;10.80;;;;;;;4.38;65.73;101236.50;1809462;79;21034;-74
2022/10/22 00:11:26;;;;;;;14.13;10.18;;;;;;;4.42;65.74;101231.92;1790635;80;21031;-74
2022/10/22 00:13:52;;;;;;;14.43;10.50;;;;;;;4.46;65.72;101234.98;1822959;78;21057;-73
2022/10/22 00:16:19;;;;;;;14.63;10.18;;;;;;;4.52;65.75;101233.37;1790893;80;21146;-74
2022/10/22 00:18:45;;;;;;;14.58;10.60;;;;;;;4.54;65.74;101229.52;1780228;80;20936;-74
2022/10/22 00:21:12;;;;;;;14.80;10.38;;;;;;;4.56;65.75;101218.20;1813888;78;21569;-73
2022/10/22 00:23:42;;;;;;;13.55;10.03;;;;;;;4.56;65.78;101218.72;1804671;78;21027;-73
2022/10/22 00:26:09;;;;;;;14.33;10.88;;;;;;;4.58;65.81;101216.19;1760742;81;21067;-74
2022/10/22 00:28:36;;;;;;;13.83;10.05;;;;;;;4.62;65.88;101219.24;1805931;77;21534;-73
2022/10/22 00:31:05;;;;;;;14.38;10.23;;;;;;;4.65;65.88;101216.20;1775366;78;21102;-74
2022/10/22 00:33:32;;;;;;;13.43;10.13;;;;;;;4.69;65.96;101216.09;1795885;78;20979;-74
2022/10/22 00:35:58;;;;;;;13.98;10.53;;;;;;;4.74;66.01;101207.54;1819954;78;20951;-74
2022/10/22 00:38:25;;;;;;;14.28;10.38;;;;;;;4.81;66.06;101196.47;1807031;78;21049;-74
2022/10/22 00:40:53;;;;;;;13.05;10.10;;;;;;;4.83;66.04;101197.88;1813959;78;21593;-73
2022/10/22 00:43:20;;;;;;;12.65;10.03;;;;;;;4.83;66.14;101195.23;1824309;78;20984;-73
2022/10/22 00:45:47;;;;;;;13.20;10.23;;;;;;;4.83;66.19;101184.64;1790784;80;20959;-73
2022/10/22 00:48:25;;;;;;;12.10;9.40;;;;;;;4.85;66.25;101185.78;1801457;78;21003;-74
2022/10/22 00:51:00;;;;;;;12.75;9.80;;;;;;;4.86;66.29;101194.02;1817110;78;21026;-74
2022/10/22 00:53:34;;;;;;;14.50;10.90;;;;;;;4.89;66.31;101189.13;1786584;79;21252;-74
2022/10/22 00:56:00;;;;;;;14.35;10.75;;;;;;;4.87;66.28;101184.56;1799905;77;21014;-74
2022/10/22 00:58:30;;;;;;;15.40;10.03;;;;;;;4.81;66.33;101180.08;1809843;77;21023;-73
2022/10/22 01:00:56;;;;;;;13.00;10.60;;;;;;;4.76;66.45;101177.22;1805898;78;21576;-74
2022/10/22 01:03:23;;;;;;;13.83;10.32;;;;;;;4.77;66.53;101173.57;1797431;78;21451;-74
2022/10/22 01:05:55;;;;;;;14.60;10.08;;;;;;;4.78;66.58;101175.19;1761302;80;21284;-73
2022/10/22 01:08:46;;;;;;;14.07;10.45;;;;;;;4.80;66.65;101179.75;1806110;78;21016;-73
2022/10/22 01:11:42;;;;;;;11.60;8.93;;;;;;;4.83;66.70;101161.34;1760576;80;21074;-74
2022/10/22 01:14:37;;;;;;;12.88;9.63;;;;;;;4.82;66.68;101147.80;1745665;80;21511;-74
2022/10/22 01:17:15;;;;;;;13.08;9.50;;;;;;;4.75;66.69;101140.38;1774364;80;21593;-74
2022/10/22 01:19:56;;;;;;;13.53;9.63;;;;;;;4.70;66.76;101131.72;1781370;79;21251;-74
2022/10/22 01:22:41;;;;;;;14.15;10.18;;;;;;;4.64;66.82;101125.42;1808576;78;21014;-74
2022/10/22 01:25:22;;;;;;;13.40;10.03;;;;;;;4.62;66.85;101130.09;1797329;78;21073;-74
2022/10/22 01:28:26;;;;;;;12.80;9.70;;;;;;;4.65;66.93;101144.76;1788308;78;21073;-74
2022/10/22 01:30:54;;;;;;;12.75;9.88;;;;;;;4.72;66.98;101136.30;1795275;78;21640;-73
2022/10/22 01:33:21;;;;;;;13.43;9.98;;;;;;;4.78;66.93;101135.49;1785643;80;21266;-74
2022/10/22 01:35:49;;;;;;;13.53;9.68;;;;;;;4.82;66.87;101135.89;1762663;78;21431;-74
2022/10/22 01:38:18;;;;;;;14.40;9.88;;;;;;;4.87;66.88;101128.14;1790267;78;20991;-74
2022/10/22 01:40:46;;;;;;;15.25;10.30;;;;;;;4.91;66.85;101130.70;1783144;78;20991;-72
2022/10/22 01:43:13;;;;;;;15.05;10.55;;;;;;;4.95;66.85;101141.18;1784892;79;21074;-73
2022/10/22 01:45:48;;;;;;;13.13;9.68;;;;;;;5.01;66.81;101132.94;1809916;78;21220;-73
2022/10/22 01:48:35;;;;;;;13.20;10.10;;;;;;;5.06;66.70;101138.41;1789961;78;21011;-74
2022/10/22 01:51:25;;;;;;;15.32;10.35;;;;;;;5.10;66.58;101136.97;1825928;78;21161;-73
2022/10/22 01:54:26;;;;;;;14.15;10.18;;;;;;;5.16;66.46;101138.80;1790038;80;21015;-73
2022/10/22 01:57:18;;;;;;;13.65;9.83;;;;;;;5.21;66.36;101135.03;1822637;78;21043;-73
2022/10/22 02:00:02;;;;;;;13.15;9.73;;;;;;;5.22;66.22;101139.30;1818406;77;21227;-74
2022/10/22 02:03:00;;;;;;;14.63;9.68;;;;;;;5.26;66.17;101133.88;1798778;77;21481;-73
2022/10/22 02:05:41;;;;;;;13.83;9.98;;;;;;;5.21;66.03;101136.36;1821380;77;21066;-73
2022/10/22 02:08:19;;;;;;;12.15;9.85;;;;;;;5.14;66.07;101131.59;1814806;78;21464;-73
2022/10/22 02:10:46;;;;;;;15.75;9.90;;;;;;;5.14;66.08;101127.62;1821115;78;21017;-74
2022/10/22 02:13:27;;;;;;;14.35;9.93;;;;;;;5.18;66.09;101119.04;1787154;78;21167;-75
2022/10/22 02:15:55;;;;;;;12.88;9.50;;;;;;;5.23;65.84;101107.84;1808348;78;21042;-73
2022/10/22 02:18:26;;;;;;;12.68;9.73;;;;;;;5.23;65.84;101107.84;1793562;78;21038;-74
2022/10/22 02:20:54;;;;;;;12.07;9.20;;;;;;;5.28;65.97;101115.16;1808650;78;21412;-73
2022/10/22 02:23:21;;;;;;;12.05;9.08;;;;;;;5.30;65.94;101113.12;1794318;79;21611;-74
2022/10/22 02:25:53;;;;;;;15.32;10.25;;;;;;;5.28;65.94;101106.69;1818650;77;21166;-74
2022/10/22 02:28:27;;;;;;;11.95;9.28;;;;;;;5.24;65.95;101108.14;1827797;78;21003;-73
2022/10/22 02:31:03;;;;;;;14.23;9.80;;;;;;;5.25;65.98;101108.43;1780680;78;21094;-73
2022/10/22 02:33:33;;;;;;;13.25;9.55;;;;;;;5.25;65.93;101104.97;1812620;78;20991;-74
2022/10/22 02:36:00;;;;;;;13.22;9.78;;;;;;;5.25;65.91;101106.30;1815035;78;21015;-73
2022/10/22 02:38:27;;;;;;;12.78;9.43;;;;;;;5.28;65.86;101105.37;1810800;78;21325;-73
2022/10/22 02:40:54;;;;;;;13.95;9.13;;;;;;;5.27;65.74;101095.00;1815084;78;21034;-74
2022/10/22 02:43:24;;;;;;;12.82;8.48;;;;;;;5.22;65.70;101090.82;1813359;78;21075;-75
2022/10/22 02:45:50;;;;;;;12.10;8.38;;;;;;;5.18;65.67;101077.99;1810815;78;21102;-74
2022/10/22 02:48:17;;;;;;;13.03;8.90;;;;;;;5.15;65.62;101078.41;1801961;78;21098;-74
2022/10/22 02:50:44;;;;;;;11.65;9.08;;;;;;;5.17;65.63;101076.89;1805702;78;21158;-73
2022/10/22 02:53:10;;;;;;;13.83;9.18;;;;;;;5.20;65.57;101066.37;1762754;80;20984;-74
2022/10/22 02:55:37;;;;;;;13.13;9.23;;;;;;;5.22;65.46;101063.02;1764665;78;21032;-73
2022/10/22 02:58:04;;;;;;;13.28;8.73;;;;;;;5.23;65.37;101063.30;1782404;78;21125;-74
2022/10/22 03:00:31;;;;;;;11.73;8.50;;;;;;;5.17;65.29;101062.33;1773903;78;21129;-73
2022/10/22 03:02:59;;;;;;;12.20;9.00;;;;;;;5.14;65.28;101051.63;1816616;78;21046;-74
2022/10/22 03:05:26;;;;;;;13.03;9.10;;;;;;;5.15;65.30;101053.77;1789676;79;21105;-74
2022/10/22 03:07:52;;;;;;;13.98;9.38;;;;;;;5.16;65.33;101045.59;1773106;79;21541;-72
2022/10/22 03:10:19;;;;;;;12.47;9.45;;;;;;;5.17;65.27;101049.09;1782633;79;21050;-73
2022/10/22 03:12:47;;;;;;;15.10;9.13;;;;;;;5.18;65.21;101045.41;1823079;78;21027;-73
2022/10/22 03:15:13;;;;;;;12.47;9.45;;;;;;;5.18;65.16;101048.05;1805305;77;21130;-73
2022/10/22 03:17:41;;;;;;;15.70;9.45;;;;;;;5.17;65.12;101064.45;1856183;77;20965;-73
2022/10/22 03:20:08;;;;;;;13.20;9.38;;;;;;;5.19;65.14;101062.91;1819041;77;21050;-74
2022/10/22 03:22:36;;;;;;;14.13;9.60;;;;;;;5.20;65.10;101061.07;1814986;78;20998;-73
2022/10/22 03:25:07;;;;;;;15.45;9.50;;;;;;;5.22;65.10;101065.66;1796301;78;21132;-74
2022/10/22 03:27:35;;;;;;;12.47;9.18;;;;;;;5.23;65.15;101066.80;1814055;78;21834;-74
2022/10/22 03:30:02;;;;;;;14.40;9.80;;;;;;;5.26;65.21;101066.34;1801037;78;21506;-74
2022/10/22 03:32:29;;;;;;;14.15;9.18;;;;;;;5.30;65.26;101062.28;1790411;79;21126;-75
2022/10/22 03:34:56;;;;;;;12.55;8.78;;;;;;;5.36;65.28;101058.80;1790509;79;22476;-74
2022/10/22 03:37:24;;;;;;;13.78;8.95;;;;;;;5.36;65.25;101046.04;1772224;79;21015;-73
2022/10/22 03:39:51;;;;;;;13.45;9.15;;;;;;;5.30;65.20;101029.69;1774307;80;21088;-76
2022/10/22 03:42:18;;;;;;;12.88;9.45;;;;;;;5.18;65.25;101038.27;1790575;78;21557;-72
2022/10/22 03:44:45;;;;;;;14.83;9.70;;;;;;;5.09;65.33;101033.41;1778723;78;21510;-73
2022/10/22 03:47:13;;;;;;;15.50;9.65;;;;;;;5.06;65.33;101031.98;1788504;79;21495;-74
2022/10/22 03:49:39;;;;;;;13.45;9.23;;;;;;;5.06;65.35;101024.05;1814596;78;20996;-74
2022/10/22 03:52:09;;;;;;;11.30;8.38;;;;;;;5.05;65.25;101015.00;1806534;79;21076;-73
2022/10/22 03:54:36;;;;;;;13.20;8.73;;;;;;;5.01;65.22;101021.74;1809702;78;21080;-73
2022/10/22 03:57:04;;;;;;;13.45;8.78;;;;;;;5.01;65.29;101012.48;1759656;80;20960;-75
2022/10/22 03:59:36;;;;;;;11.57;8.18;;;;;;;5.03;65.27;101015.70;1781913;80;21031;-73
2022/10/22 04:02:06;;;;;;;13.95;9.30;;;;;;;5.02;65.24;101010.13;1781209;80;20948;-74
2022/10/22 04:04:32;;;;;;;11.85;8.50;;;;;;;4.97;65.22;101008.11;1812487;78;21193;-75
2022/10/22 04:06:59;;;;;;;12.73;8.90;;;;;;;4.96;65.28;101010.95;1804445;78;21031;-74
2022/10/22 04:09:31;;;;;;;11.90;8.85;;;;;;;5.00;65.40;101010.83;1822492;78;21499;-74
2022/10/22 04:11:59;;;;;;;12.55;8.08;;;;;;;5.01;65.38;101007.19;1795901;78;21561;-73
2022/10/22 04:14:25;;;;;;;13.58;9.58;;;;;;;4.99;65.42;101001.27;1781899;79;21635;-74
2022/10/22 04:16:53;;;;;;;11.70;7.65;;;;;;;4.96;65.46;101003.82;1814308;78;21192;-74
2022/10/22 04:19:20;;;;;;;12.50;8.58;;;;;;;4.97;65.54;100999.33;1801503;78;20944;-74
2022/10/22 04:21:46;;;;;;;12.30;8.43;;;;;;;4.97;65.57;101004.62;1814839;78;20983;-74
2022/10/22 04:24:13;;;;;;;14.00;8.55;;;;;;;4.98;65.61;100995.69;1820176;78;20943;-74
2022/10/22 04:26:41;;;;;;;13.35;9.48;;;;;;;5.00;65.64;101000.23;1825145;78;21077;-74
2022/10/22 04:29:07;;;;;;;14.93;9.20;;;;;;;5.04;65.66;101002.80;1788700;79;21241;-74
2022/10/22 04:31:35;;;;;;;11.55;8.30;;;;;;;5.09;65.62;100998.99;1789602;79;20987;-74
2022/10/22 04:34:02;;;;;;;11.50;8.18;;;;;;;5.16;65.60;101003.75;1777646;78;21109;-75
2022/10/22 04:36:30;;;;;;;12.98;8.63;;;;;;;5.22;65.57;100985.70;1769649;78;21003;-73
2022/10/22 04:38:59;;;;;;;12.50;8.93;;;;;;;5.23;65.52;100991.31;1800953;78;21514;-75
2022/10/22 04:41:31;;;;;;;13.90;8.58;;;;;;;5.27;65.63;100990.38;1796159;80;21138;-75
2022/10/22 04:43:59;;;;;;;13.62;8.68;;;;;;;5.33;65.63;100985.05;1782029;78;21030;-75
2022/10/22 04:46:29;;;;;;;15.43;8.55;;;;;;;5.39;65.62;100984.70;1820635;78;20968;-74
2022/10/22 04:48:55;;;;;;;14.00;9.23;;;;;;;5.44;65.60;100982.75;1785410;78;21041;-74
2022/10/22 04:51:24;;;;;;;13.08;8.73;;;;;;;5.47;65.58;100992.92;1783013;79;21146;-74
2022/10/22 04:53:51;;;;;;;13.05;7.65;;;;;;;5.51;65.56;100989.63;1789015;78;21282;-73
2022/10/22 04:56:29;;;;;;;15.05;8.55;;;;;;;5.56;65.47;100987.66;1809997;78;21062;-74
2022/10/22 04:59:02;;;;;;;13.05;8.20;;;;;;;5.58;65.37;100978.98;1810373;77;21058;-74
2022/10/22 05:01:37;;;;;;;12.18;8.50;;;;;;;5.62;65.27;100988.12;1796187;78;21047;-74
2022/10/22 05:04:05;;;;;;;13.35;9.00;;;;;;;5.64;65.20;100990.06;1805691;78;20961;-75
2022/10/22 05:06:33;;;;;;;11.28;8.13;;;;;;;5.68;65.22;100992.58;1812084;78;21216;-74
2022/10/22 05:09:04;;;;;;;13.53;8.80;;;;;;;5.75;65.18;100987.23;1817002;78;21031;-73
2022/10/22 05:11:35;;;;;;;12.80;8.50;;;;;;;5.83;65.17;100988.31;1820237;78;21006;-73
2022/10/22 05:14:05;;;;;;;12.85;8.38;;;;;;;5.90;65.06;100984.30;1805775;77;21000;-73
2022/10/22 05:16:32;;;;;;;11.57;8.05;;;;;;;5.95;64.99;100976.52;1815036;77;21018;-74
2022/10/22 05:19:00;;;;;;;11.25;7.97;;;;;;;5.98;64.93;100976.90;1817947;77;21129;-74
2022/10/22 05:21:27;;;;;;;12.47;8.88;;;;;;;6.03;64.86;100983.70;1816481;78;20911;-73
2022/10/22 05:23:56;;;;;;;13.85;8.53;;;;;;;6.08;64.83;100980.39;1818294;78;20994;-73
2022/10/22 05:26:24;;;;;;;13.10;8.28;;;;;;;6.17;64.80;100978.29;1804666;78;21046;-72
2022/10/22 05:28:52;;;;;;;12.15;8.20;;;;;;;6.26;64.72;100977.80;1779286;78;21573;-73
2022/10/22 05:31:19;;;;;;;11.97;7.97;;;;;;;6.39;64.59;100980.05;1794383;79;21246;-74
2022/10/22 05:33:46;;;;;;;12.95;8.98;;;;;;;6.49;64.47;100976.37;1760920;81;20969;-74
2022/10/22 05:36:19;;;;;;;13.62;8.05;;;;;;;6.53;64.35;100977.55;1812417;78;21572;-73
2022/10/22 05:38:46;;;;;;;14.83;9.13;;;;;;;6.53;64.35;100974.38;1792233;78;20990;-73
2022/10/22 05:41:19;;;;;;;11.38;7.30;;;;;;;6.57;64.37;100977.39;1791256;79;21004;-74
2022/10/22 05:43:47;;;;;;;13.18;8.10;;;;;;;6.63;64.27;100972.53;1802425;78;21167;-72
2022/10/22 05:46:19;;;;;;;11.97;8.13;;;;;;;6.70;64.18;100973.27;1799345;78;21009;-74
2022/10/22 05:48:51;;;;;;;12.98;8.75;;;;;;;6.76;64.10;100970.26;1818809;78;20979;-73
2022/10/22 05:51:18;;;;;;;13.25;8.25;;;;;;;6.85;63.97;100981.41;1803917;79;21000;-73
2022/10/22 05:53:45;;;;;;;13.43;8.18;;;;;;;6.94;63.89;100984.88;1808182;78;21044;-74
2022/10/22 05:56:15;;;;;;;12.63;7.78;;;;;;;7.04;63.69;100989.14;1792803;78;21142;-75
2022/10/22 05:58:43;;;;;;;17.37;9.20;;;;;;;7.13;63.54;100995.46;1794333;79;20988;-74
2022/10/22 06:01:15;;;;;;;11.33;8.03;;;;;;;7.23;63.44;100987.25;1790447;79;21089;-72
2022/10/22 06:03:43;;;;;;;14.95;8.63;;;;;;;7.29;63.22;100991.67;1792708;78;21119;-73
2022/10/22 06:06:31;;;;;;;13.40;8.45;;;;;;;7.41;63.08;100989.60;1816078;78;20960;-74
2022/10/22 06:09:02;;;;;;;13.22;8.88;;;;;;;7.49;62.81;100980.77;1791913;79;21242;-73
2022/10/22 06:11:29;;;;;;;12.82;7.97;;;;;;;7.60;62.67;100985.02;1827972;78;21122;-73
2022/10/22 06:13:55;;;;;;;15.28;8.93;;;;;;;7.70;62.42;100975.48;1791492;79;20959;-74
2022/10/22 06:16:22;;;;;;;14.03;9.15;;;;;;;7.79;62.09;100974.62;1777217;79;21528;-74
2022/10/22 06:18:49;;;;;;;12.03;8.35;;;;;;;7.91;61.90;100965.34;1788078;79;21063;-73
2022/10/22 06:21:15;;;;;;;13.68;7.97;;;;;;;8.00;61.65;100962.64;1816704;78;21764;-73
2022/10/22 06:23:43;;;;;;;15.10;8.63;;;;;;;8.07;61.48;100967.86;1784093;80;21043;-73
2022/10/22 06:26:10;;;;;;;13.15;8.10;;;;;;;8.17;61.31;100968.90;1818852;78;20960;-74
2022/10/22 06:28:38;;;;;;;13.75;7.90;;;;;;;8.29;61.17;100972.07;1818469;78;21705;-74
2022/10/22 06:31:05;;;;;;;13.85;8.20;;;;;;;8.40;60.93;100956.67;1800567;77;20989;-73
2022/10/22 06:33:35;;;;;;;13.50;8.08;;;;;;;8.49;60.74;100951.78;1785035;80;21145;-74
2022/10/22 06:36:10;;;;;;;13.60;8.40;;;;;;;8.62;60.67;100955.03;1812594;77;21070;-73
2022/10/22 06:38:38;;;;;;;11.25;7.33;;;;;;;8.82;60.62;100957.84;1808085;78;21569;-74
2022/10/22 06:41:11;;;;;;;14.10;7.75;;;;;;;9.04;60.29;100950.80;1825421;78;21022;-73
2022/10/22 06:43:38;;;;;;;14.87;7.97;;;;;;;9.22;59.61;100949.82;1827516;78;21122;-73
2022/10/22 06:46:11;;;;;;;14.47;7.83;;;;;;;9.42;59.08;100946.72;1808257;77;21972;-72
2022/10/22 06:48:39;;;;;;;11.87;7.30;;;;;;;9.57;58.64;100948.30;1821700;78;21090;-72
2022/10/22 06:51:10;;;;;;;13.48;8.13;;;;;;;9.76;58.11;100944.09;1793255;80;20951;-72
2022/10/22 06:53:39;;;;;;;12.15;7.33;;;;;;;9.92;57.71;100937.95;1813800;78;25017;-73
2022/10/22 06:56:08;;;;;;;11.78;7.70;;;;;;;10.05;56.95;100936.28;1828088;78;20991;-71
2022/10/22 06:58:35;;;;;;;14.25;7.45;;;;;;;10.15;56.09;100930.82;1806950;78;21207;-72
2022/10/22 07:01:06;;;;;;;12.98;7.50;;;;;;;10.23;55.62;100930.39;1784461;80;20986;-72
2022/10/22 07:03:32;;;;;;;17.65;8.18;;;;;;;10.31;55.24;100934.83;1793165;79;21089;-72
2022/10/22 07:06:02;;;;;;;12.93;7.70;;;;;;;10.40;54.84;100929.05;1812469;78;21006;-72
2022/10/22 07:08:29;;;;;;;16.23;8.43;;;;;;;10.51;54.72;100926.28;1798989;78;21019;-72
2022/10/22 07:11:11;;;;;;;13.22;7.97;;;;;;;10.62;54.44;100926.41;1806285;77;21070;-73
2022/10/22 07:13:38;;;;;;;12.73;7.85;;;;;;;10.74;54.12;100927.91;1756411;79;20947;-73
2022/10/22 07:16:05;;;;;;;14.35;7.83;;;;;;;10.86;53.71;100923.78;1815527;78;20954;-74
2022/10/22 07:18:32;;;;;;;13.40;7.00;;;;;;;10.95;53.42;100922.80;1813497;78;21040;-73
2022/10/22 07:21:01;;;;;;;9.85;6.62;;;;;;;11.06;53.14;100922.41;1817986;78;21003;-73
2022/10/22 07:23:28;;;;;;;11.57;7.10;;;;;;;11.16;52.92;100923.84;1803593;78;21496;-73
2022/10/22 07:25:55;;;;;;;18.25;8.15;;;;;;;11.25;52.63;100924.48;1802867;78;21066;-72
2022/10/22 07:28:21;;;;;;;16.10;8.10;;;;;;;11.36;52.50;100924.58;1824719;78;21552;-72
2022/10/22 07:30:48;;;;;;;14.20;6.92;;;;;;;11.48;52.28;100923.87;1824772;78;21121;-73
2022/10/22 07:33:15;;;;;;;14.30;7.42;;;;;;;11.58;51.82;100921.31;1809909;78;20982;-73
2022/10/22 07:35:41;;;;;;;11.93;6.80;;;;;;;11.69;51.89;100922.20;1816360;78;21784;-73
2022/10/22 07:38:09;;;;;;;16.45;7.85;;;;;;;11.82;51.92;100906.24;1822042;77;20980;-71
2022/10/22 07:40:35;;;;;;;13.20;7.08;;;;;;;11.97;51.60;100905.83;1800681;78;20979;-73
2022/10/22 07:43:03;;;;;;;11.70;6.87;;;;;;;12.10;51.30;100903.23;1792275;79;21059;-71
2022/10/22 07:45:29;;;;;;;10.20;7.03;;;;;;;12.22;50.97;100903.59;1810302;78;20955;-72
2022/10/22 07:47:56;;;;;;;12.80;6.30;;;;;;;12.29;50.72;100903.62;1810390;78;21235;-73
2022/10/22 07:50:23;;;;;;;9.30;6.67;;;;;;;12.35;50.49;100900.45;1790232;78;21281;-72
2022/10/22 07:52:50;;;;;;;9.73;6.43;;;;;;;12.39;50.40;100902.33;1814609;78;21238;-74
2022/10/22 07:55:16;;;;;;;12.13;6.73;;;;;;;12.46;50.28;100899.95;1808642;78;21316;-73
2022/10/22 07:57:43;;;;;;;12.10;6.73;;;;;;;12.51;50.14;100892.75;1776379;78;21374;-73
2022/10/22 08:00:11;;;;;;;11.23;6.07;;;;;;;12.58;50.17;100903.23;1820445;78;21292;-72
2022/10/22 08:02:40;;;;;;;9.53;6.17;;;;;;;12.64;49.83;100902.19;1772603;79;21734;-73
2022/10/22 08:05:07;;;;;;;9.70;5.60;;;;;;;12.60;49.13;100901.08;1779362;79;21645;-72
2022/10/22 08:07:34;;;;;;;10.67;5.80;;;;;;;12.60;49.53;100897.89;1816774;78;21677;-72
2022/10/22 08:10:00;;;;;;;8.77;4.90;;;;;;;12.67;49.73;100898.98;1813131;78;21285;-73
2022/10/22 08:12:28;;;;;;;9.83;5.23;;;;;;;12.77;49.63;100899.02;1801709;78;21279;-72
2022/10/22 08:14:56;;;;;;;9.17;5.50;;;;;;;12.85;49.17;100899.03;1811756;78;21182;-73
2022/10/22 08:17:22;;;;;;;8.93;5.30;;;;;;;12.87;49.13;100892.35;1815076;78;21315;-73
2022/10/22 08:19:48;;;;;;;7.73;4.73;;;;;;;12.92;48.73;100896.91;1794958;80;21550;-73
2022/10/22 08:22:15;;;;;;;7.30;5.27;;;;;;;12.93;48.25;100903.07;1828995;78;21114;-73
2022/10/22 08:24:42;;;;;;;8.40;5.40;;;;;;;12.89;48.34;100897.44;1796385;78;21296;-72
2022/10/22 08:27:08;;;;;;;9.10;5.50;;;;;;;12.93;48.37;100903.07;1796489;78;21774;-73
2022/10/22 08:29:35;;;;;;;10.87;5.00;;;;;;;12.95;48.46;100906.30;1819091;78;21151;-73
2022/10/22 08:32:02;;;;;;;8.50;5.43;;;;;;;12.99;48.49;100902.02;1809790;79;21791;-71
2022/10/22 08:34:29;;;;;;;8.40;5.10;;;;;;;13.02;48.39;100905.52;1812115;79;21419;-73
2022/10/22 08:36:57;;;;;;;7.10;5.07;;;;;;;13.05;48.47;100900.97;1801064;79;21272;-73
2022/10/22 08:39:24;;;;;;;9.47;5.43;;;;;;;13.08;48.37;100906.60;1792174;80;21211;-73
2022/10/22 08:42:14;;;;;;;10.13;5.17;;;;;;;13.09;48.33;100902.04;1784599;80;21288;-73
2022/10/22 08:45:30;;;;;;;8.80;5.27;;;;;;;13.11;48.35;100903.94;1791512;78;21677;-73
2022/10/22 08:48:29;;;;;;;7.37;5.17;;;;;;;13.15;48.33;100899.64;1799948;78;21723;-72
2022/10/22 08:50:56;;;;;;;8.43;5.03;;;;;;;13.19;48.34;100906.08;1823390;78;21325;-72
2022/10/22 08:53:43;;;;;;;8.63;4.73;;;;;;;13.22;48.28;100908.23;1810188;78;21310;-73
2022/10/22 08:56:10;;;;;;;6.83;4.87;;;;;;;13.24;48.45;100898.09;1807572;78;21168;-73
2022/10/22 08:58:54;;;;;;;8.97;5.00;;;;;;;13.27;48.56;100896.22;1805858;78;21701;-73
2022/10/22 09:01:28;;;;;;;11.23;5.87;;;;;;;13.29;48.63;100893.25;1761462;80;21325;-72
2022/10/22 09:04:18;;;;;;;7.40;5.00;;;;;;;13.28;48.79;100893.80;1821295;78;21897;-71
2022/10/22 09:06:46;;;;;;;7.80;5.40;;;;;;;13.27;48.75;100885.48;1810665;78;21200;-73
2022/10/22 09:09:17;;;;;;;7.80;5.03;;;;;;;13.26;48.78;100882.55;1811270;78;20960;-73
2022/10/22 09:11:49;;;;;;;7.40;5.23;;;;;;;13.25;48.89;100875.55;1809496;79;21317;-73
2022/10/22 09:14:20;;;;;;;6.95;4.85;;;;;;;13.25;49.00;100875.55;1821031;78;21177;-73
2022/10/22 09:17:19;;;;;;;10.60;5.20;;;;;;;13.23;49.13;100875.00;1822999;78;21074;-73
2022/10/22 09:20:01;;;;;;;8.57;5.60;;;;;;;13.20;49.32;100876.87;1811918;78;21493;-71
2022/10/22 09:23:06;;;;;;;10.32;5.72;;;;;;;13.19;49.51;100880.60;1819216;78;21258;-73
2022/10/22 09:25:35;;;;;;;9.00;5.40;;;;;;;13.17;49.61;100880.08;1781917;80;21442;-72
2022/10/22 09:28:03;;;;;;;7.77;5.53;;;;;;;13.16;49.84;100875.77;1795429;80;21279;-74
2022/10/22 09:30:34;;;;;;;9.37;5.17;;;;;;;13.15;49.69;100884.89;1795611;80;21244;-72
2022/10/22 09:33:08;;;;;;;9.10;5.57;;;;;;;13.09;49.67;100869.86;1795540;80;21574;-73
2022/10/22 09:35:53;;;;;;;7.70;5.33;;;;;;;13.06;49.85;100875.75;1795900;78;21231;-73
2022/10/22 09:38:29;;;;;;;8.67;5.00;;;;;;;13.02;50.06;100858.59;1790382;79;21270;-72
2022/10/22 09:40:57;;;;;;;9.50;5.33;;;;;;;13.01;50.32;100851.63;1812518;79;21117;-74
2022/10/22 09:43:24;;;;;;;7.60;4.80;;;;;;;12.99;50.53;100843.03;1811895;79;21297;-72
2022/10/22 09:46:00;;;;;;;8.53;4.97;;;;;;;12.98;50.67;100837.41;1812324;78;21716;-72
2022/10/22 09:48:38;;;;;;;10.40;5.20;;;;;;;12.96;50.83;100822.11;1812380;79;21856;-73
2022/10/22 09:51:26;;;;;;;9.60;5.40;;;;;;;12.92;51.11;100799.05;1812632;78;21776;-73
2022/10/22 09:53:59;;;;;;;9.63;5.37;;;;;;;12.90;51.25;100797.98;1785394;79;21204;-73
2022/10/22 09:56:35;;;;;;;8.87;6.03;;;;;;;12.90;51.38;100800.67;1811613;79;21164;-73
2022/10/22 09:59:02;;;;;;;11.50;6.07;;;;;;;12.93;51.55;100799.31;1811962;78;21256;-71
2022/10/22 10:01:34;;;;;;;10.67;6.70;;;;;;;12.95;51.60;100781.09;1812420;79;21226;-73
2022/10/22 10:04:11;;;;;;;12.80;6.83;;;;;;;12.88;51.83;100814.87;1811831;78;21200;-73
2022/10/22 10:06:40;;;;;;;10.37;6.33;;;;;;;12.89;52.00;100800.92;1804278;79;21348;-72
2022/10/22 10:09:23;;;;;;;11.60;6.20;;;;;;;12.91;52.05;100799.59;1792277;80;21287;-72
2022/10/22 10:12:01;;;;;;;10.93;6.10;;;;;;;12.95;52.24;100804.42;1792716;80;21313;-71
2022/10/22 10:14:45;;;;;;;9.07;5.57;;;;;;;13.01;52.25;100792.09;1761109;81;21239;-72
2022/10/22 10:17:39;;;;;;;8.23;5.77;;;;;;;13.07;52.30;100776.28;1760954;81;21248;-72
2022/10/22 10:20:45;;;;;;;10.10;5.87;;;;;;;13.11;52.40;100785.94;1792722;80;21909;-72
2022/10/22 10:23:30;;;;;;;10.57;5.90;;;;;;;13.20;52.46;100780.84;1791473;80;21285;-72
2022/10/22 10:26:34;;;;;;;9.80;5.37;;;;;;;13.32;52.46;100786.22;1828478;78;21299;-72
2022/10/22 10:29:18;;;;;;;9.70;5.60;;;;;;;13.41;52.37;100799.09;1765689;79;21325;-72
2022/10/22 10:32:07;;;;;;;7.30;5.50;;;;;;;13.49;52.18;100804.73;1730420;81;21239;-73
2022/10/22 10:34:49;;;;;;;9.60;5.70;;;;;;;13.55;52.08;100793.44;1761125;81;21174;-72
2022/10/22 10:37:26;;;;;;;7.45;5.28;;;;;;;13.60;52.06;100777.34;1794303;78;21262;-73
2022/10/22 10:40:11;;;;;;;9.13;5.40;;;;;;;13.66;52.17;100778.95;1790589;78;21502;-72
2022/10/22 10:42:43;;;;;;;10.27;6.13;;;;;;;13.77;52.08;100768.98;1790908;78;21314;-73
2022/10/22 10:45:57;;;;;;;8.43;6.00;;;;;;;13.84;51.98;100768.95;1795792;80;21293;-72
2022/10/22 10:48:42;;;;;;;9.23;5.53;;;;;;;13.95;51.95;100770.25;1787835;79;21875;-72
2022/10/22 10:51:44;;;;;;;8.17;5.50;;;;;;;14.09;51.77;100768.61;1792590;80;21497;-72
2022/10/22 10:54:40;;;;;;;9.75;5.42;;;;;;;14.20;51.68;100766.67;1792355;80;21686;-72
2022/10/22 10:57:38;;;;;;;8.73;5.50;;;;;;;14.31;51.65;100755.61;1774476;80;21427;-73
2022/10/22 11:00:10;;;;;;;9.37;5.50;;;;;;;14.40;51.49;100744.27;1792426;80;21216;-72
2022/10/22 11:03:17;;;;;;;8.27;5.60;;;;;;;14.48;51.49;100736.98;1768294;80;21136;-73
2022/10/22 11:06:08;;;;;;;8.10;5.57;;;;;;;14.54;51.24;100746.63;1760649;80;21243;-73
2022/10/22 11:08:44;;;;;;;8.30;5.10;;;;;;;14.56;51.09;100747.16;1806469;79;21339;-73
2022/10/22 11:11:33;;;;;;;7.63;5.33;;;;;;;14.57;50.99;100755.47;1790552;80;21743;-73
2022/10/22 11:14:20;;;;;;;9.20;5.33;;;;;;;14.57;50.56;100746.61;1774053;80;21356;-73
2022/10/22 11:16:55;;;;;;;12.00;5.67;;;;;;;14.57;50.56;100746.61;1791029;80;21453;-72
2022/10/22 11:19:39;;;;;;;10.50;5.40;;;;;;;14.56;50.86;100749.84;1805263;79;21243;-73
2022/10/22 11:22:23;;;;;;;11.50;5.50;;;;;;;14.63;50.87;100745.50;1777361;80;21153;-71
2022/10/22 11:25:20;;;;;;;7.50;4.90;;;;;;;14.71;50.73;100740.89;1809357;79;21369;-72
2022/10/22 11:28:02;;;;;;;9.37;5.23;;;;;;;14.80;50.61;100739.73;1792119;80;21881;-73
2022/10/22 11:30:34;;;;;;;7.67;4.80;;;;;;;14.85;50.29;100728.41;1778398;80;21411;-73
2022/10/22 11:33:06;;;;;;;8.30;5.20;;;;;;;14.98;50.20;100726.95;1789040;80;21312;-73
2022/10/22 11:35:36;;;;;;;7.83;4.87;;;;;;;15.08;49.98;100724.73;1789149;80;21777;-72
2022/10/22 11:38:05;;;;;;;7.30;5.87;;;;;;;15.14;49.56;100724.94;1788320;78;21413;-71
2022/10/22 11:40:36;;;;;;;8.53;5.13;;;;;;;15.15;49.38;100724.64;1784391;80;21398;-72
2022/10/22 11:43:08;;;;;;;8.07;5.10;;;;;;;15.23;48.85;100711.94;1784133;80;21957;-73
2022/10/22 11:45:38;;;;;;;8.08;5.12;;;;;;;15.23;48.85;100711.94;1783692;80;22063;-71
2022/10/22 11:48:17;;;;;;;10.32;5.65;;;;;;;15.29;49.05;100712.67;1784277;80;20927;-71